Grand Junction Regional Airport
KGJT : now visible

Airfield :











YOU CAN JOIN US ON...

 
LOGIN :

Register | Disclaimer

   EN    FR    IT 

 









Legend :    VFR   Marginal VFR   IFR   Intensive IFR   Very Intensive IFR
Visi :
Ceiling :
>= 8 km
>= 3000ft
5 to 8 km
1000 to 3000 ft
1500m to 5 km
500 to 1000 ft
800 to 1500m
200 to 500 ft
< 800m
< 200 ft
Symbols :   Thunderstorms  Fog  Heavy snow  Heavy precipitations  Wind > 20 kt






- Airport Elevation : 4858 ft
- IATA code : GJT


KGJT - Grand Junction Regional

CURRENT METAR :
  • 031853Z 20011KT 10SM SCT090 BKN120 29/09 A3001 RMK AO2 PK WND 14026/1814 LTG DSNT N AND S RAB18E42 SLP083 P0000 T02940089

EXPIRED METARs :
  • 030453Z AUTO 09007KT 10SM CLR 24/07 A2999 RMK AO2 SLP078 T02390067
  • 031753Z 13016G21KT 10SM SCT090 30/09 A3003 RMK AO2 LTG DSNT SW SLP086 60000 T03000089 10306 20206 58007

TAF KGJT
Valid from the 03 at 18:00 until the 04 at 18:00 UTC


031728Z 0318/0418 15015KT P6SM FEW120
FM031930 19012KT P6SM VCTS SCT100CB
TEMPO 0320/0324 VRB15G30KT -TSRA BKN080CB BKN100
FM040000 15012KT P6SM VCTS FEW100CB SCT200
FM040600 12011KT P6SM FEW100
KZDV FIR / North America



MET'MAP, your aeronautical weather chart ! - Copyright ORBIFLY December 2007 - Disclaimer

ORBIFLY MET'MAP TEAM :

Programming & Development : Alexandra Zaïnal
Original concept : Baudouin d'Aumeries
Technical & hardware support : Manuel Goepfert
Assistance : Marc-Olivier Méhu




SOURCES & CREDITS :

   NOAA       Earth
Advisory